createdAt,value
2018-09-27T00:00:25.407Z,2.10
2018-09-27T00:02:54.891Z,2.10
2018-09-27T00:05:25.205Z,2.27
2018-09-27T00:07:54.760Z,2.27
2018-09-27T00:10:24.246Z,2.10
2018-09-27T00:12:53.684Z,2.00
2018-09-27T00:15:23.322Z,1.90
2018-09-27T00:17:52.896Z,2.10
2018-09-27T00:20:22.730Z,2.07
2018-09-27T00:22:52.572Z,1.90
2018-09-27T00:25:22.285Z,1.80
2018-09-27T00:27:52.533Z,1.80
2018-09-27T00:30:22.141Z,1.80
2018-09-27T00:32:51.901Z,2.00
2018-09-27T00:35:22.208Z,1.77
2018-09-27T00:37:53.718Z,2.03
2018-09-27T00:40:24.392Z,1.80
2018-09-27T00:42:53.833Z,1.70
2018-09-27T00:45:23.369Z,2.10
2018-09-27T00:47:52.803Z,1.73
2018-09-27T00:50:23.939Z,2.00
2018-09-27T00:52:53.529Z,1.90
2018-09-27T00:55:22.880Z,2.10
2018-09-27T00:57:52.323Z,1.63
2018-09-27T01:00:21.834Z,1.87
2018-09-27T01:02:52.734Z,1.90
2018-09-27T01:05:22.196Z,1.80
2018-09-27T01:07:51.638Z,1.80
2018-09-27T01:10:21.368Z,1.80
2018-09-27T01:12:51.584Z,1.60
2018-09-27T01:15:21.151Z,1.80
2018-09-27T01:17:50.627Z,1.90
2018-09-27T01:20:20.743Z,1.80
2018-09-27T01:22:51.577Z,1.80
2018-09-27T01:25:20.981Z,1.60
2018-09-27T01:27:50.617Z,1.53
2018-09-27T01:30:20.099Z,1.90
2018-09-27T01:32:50.106Z,1.90
2018-09-27T01:35:20.499Z,1.67
2018-09-27T01:37:50.145Z,1.60
2018-09-27T01:40:20.221Z,1.50
2018-09-27T01:42:50.400Z,1.90
2018-09-27T01:45:19.992Z,1.60
2018-09-27T01:47:50.228Z,1.90
2018-09-27T01:50:19.676Z,1.90
2018-09-27T01:52:49.822Z,1.60
2018-09-27T01:55:19.466Z,1.90
2018-09-27T01:57:49.258Z,1.80
2018-09-27T02:00:19.176Z,2.00
2018-09-27T02:02:48.777Z,1.90
2018-09-27T02:05:18.478Z,1.80
2018-09-27T02:07:48.033Z,1.83
2018-09-27T02:10:17.655Z,2.20
2018-09-27T02:12:48.475Z,1.87
2018-09-27T02:15:18.193Z,1.90
2018-09-27T02:17:48.535Z,2.00
2018-09-27T02:20:18.118Z,2.03
2018-09-27T02:22:48.275Z,2.00
2018-09-27T02:25:18.467Z,2.10
2018-09-27T02:27:48.201Z,1.97
2018-09-27T02:30:17.872Z,2.30
2018-09-27T02:32:47.890Z,2.13
2018-09-27T02:35:17.965Z,1.90
2018-09-27T02:37:47.471Z,2.00
2018-09-27T02:40:17.140Z,1.90
2018-09-27T02:42:46.828Z,1.83
2018-09-27T02:45:17.135Z,1.83
2018-09-27T02:47:47.228Z,2.07
2018-09-27T02:50:16.667Z,2.17
2018-09-27T02:52:47.196Z,2.17
2018-09-27T02:55:17.427Z,2.23
2018-09-27T02:57:48.200Z,2.10
2018-09-27T03:00:17.891Z,2.03
2018-09-27T03:02:47.354Z,1.80
2018-09-27T03:05:16.928Z,1.63
2018-09-27T03:07:46.446Z,1.67
2018-09-27T03:10:15.884Z,1.80
2018-09-27T03:12:45.438Z,1.60
2018-09-27T03:15:15.088Z,1.60
2018-09-27T03:17:44.666Z,1.83
2018-09-27T03:20:14.380Z,1.87
2018-09-27T03:22:43.830Z,1.90
2018-09-27T03:25:13.316Z,2.00
2018-09-27T03:27:43.059Z,1.93
2018-09-27T03:30:13.718Z,1.70
2018-09-27T03:32:43.248Z,1.60
2018-09-27T03:35:12.842Z,1.50
2018-09-27T03:37:42.588Z,1.50
2018-09-27T03:40:12.213Z,1.60
2018-09-27T03:42:41.699Z,1.60
2018-09-27T03:45:11.203Z,1.70
2018-09-27T03:47:40.833Z,1.90
2018-09-27T03:50:10.421Z,1.70
2018-09-27T03:52:40.163Z,1.57
2018-09-27T03:55:11.840Z,1.63
2018-09-27T03:57:41.765Z,1.80
2018-09-27T04:00:11.647Z,1.70
2018-09-27T04:02:42.894Z,1.83
2018-09-27T04:05:12.484Z,1.70
2018-09-27T04:07:43.123Z,1.60
2018-09-27T04:10:12.835Z,1.77
2018-09-27T04:12:43.414Z,1.90
2018-09-27T04:15:18.777Z,1.60
2018-09-27T04:17:48.447Z,1.63
2018-09-27T04:20:19.163Z,2.10
2018-09-27T04:22:49.422Z,1.60
2018-09-27T04:25:19.604Z,1.80
2018-09-27T04:27:49.913Z,1.60
2018-09-27T04:30:19.588Z,1.80
2018-09-27T04:32:51.286Z,2.13
2018-09-27T04:35:20.771Z,1.70
2018-09-27T04:37:50.952Z,1.73
2018-09-27T04:40:20.984Z,1.80
2018-09-27T04:42:50.424Z,1.73
2018-09-27T04:45:20.028Z,1.43
2018-09-27T04:47:50.377Z,1.70
2018-09-27T04:50:20.022Z,1.77
2018-09-27T04:52:49.558Z,1.77
2018-09-27T04:55:19.142Z,1.60
2018-09-27T04:57:50.436Z,2.00
2018-09-27T05:00:21.010Z,1.80
2018-09-27T05:02:50.677Z,1.87
2018-09-27T05:05:20.493Z,1.97
2018-09-27T05:07:50.303Z,1.70
2018-09-27T05:10:19.865Z,2.13
2018-09-27T05:12:50.149Z,1.60
2018-09-27T05:15:20.344Z,1.57
2018-09-27T05:17:50.270Z,2.00
2018-09-27T05:20:20.678Z,2.10
2018-09-27T05:22:50.418Z,2.10
2018-09-27T05:25:20.512Z,1.97
2018-09-27T05:27:50.852Z,1.70
2018-09-27T05:30:20.584Z,1.80
2018-09-27T05:32:50.382Z,1.90
2018-09-27T05:35:21.374Z,1.77
2018-09-27T05:37:51.689Z,1.40
2018-09-27T05:40:21.425Z,1.50
2018-09-27T05:42:51.197Z,1.93
2018-09-27T05:45:21.138Z,1.70
2018-09-27T05:47:52.242Z,1.93
2018-09-27T05:50:22.145Z,2.20
2018-09-27T05:52:52.796Z,2.30
2018-09-27T05:55:22.920Z,2.20
2018-09-27T05:57:52.402Z,2.30
2018-09-27T06:00:21.947Z,2.10
2018-09-27T06:02:52.396Z,2.43
2018-09-27T06:05:22.235Z,2.60
2018-09-27T06:07:51.947Z,2.60
2018-09-27T06:10:23.025Z,2.10
2018-09-27T06:12:52.505Z,2.53
2018-09-27T06:15:22.155Z,2.33
2018-09-27T06:17:51.680Z,3.00
2018-09-27T06:20:21.267Z,2.70
2018-09-27T06:22:51.345Z,3.10
2018-09-27T06:25:27.588Z,3.13
2018-09-27T06:27:57.298Z,2.87
2018-09-27T06:30:27.861Z,3.10
2018-09-27T06:32:57.451Z,4.03
2018-09-27T06:35:28.097Z,3.57
2018-09-27T06:37:58.649Z,3.40
2018-09-27T06:40:28.301Z,4.17
2018-09-27T06:42:57.962Z,4.60
2018-09-27T06:45:27.750Z,4.30
2018-09-27T06:47:57.713Z,5.17
2018-09-27T06:50:27.366Z,4.07
2018-09-27T06:52:57.764Z,3.77
2018-09-27T06:55:28.920Z,3.50
2018-09-27T06:57:59.212Z,2.73
2018-09-27T07:00:29.294Z,2.10
2018-09-27T07:02:59.498Z,1.70
2018-09-27T07:05:29.628Z,1.77
2018-09-27T07:07:59.446Z,1.93
2018-09-27T07:10:29.052Z,1.53
2018-09-27T07:12:59.873Z,1.60
2018-09-27T07:15:31.709Z,1.80
2018-09-27T07:18:02.575Z,1.90
2018-09-27T07:20:32.434Z,1.60
2018-09-27T07:23:02.246Z,1.63
2018-09-27T07:25:36.924Z,1.40
2018-09-27T07:28:06.971Z,1.47
2018-09-27T07:30:36.887Z,1.50
2018-09-27T07:33:07.712Z,1.70
2018-09-27T07:35:37.792Z,1.40
2018-09-27T07:38:08.709Z,1.10
2018-09-27T07:40:38.380Z,1.43
2018-09-27T07:43:08.518Z,1.47
2018-09-27T07:45:38.351Z,1.27
2018-09-27T07:48:07.903Z,1.30
2018-09-27T07:50:39.272Z,1.20
2018-09-27T07:53:09.013Z,1.40
2018-09-27T07:55:39.136Z,0.90
2018-09-27T07:58:11.605Z,1.30
2018-09-27T08:00:41.213Z,1.13
2018-09-27T08:03:10.971Z,1.30
2018-09-27T08:05:41.619Z,1.10
2018-09-27T08:08:11.832Z,1.20
2018-09-27T08:10:41.515Z,1.40
2018-09-27T08:13:11.589Z,1.20
2018-09-27T08:15:41.676Z,1.00
2018-09-27T08:18:11.286Z,1.40
2018-09-27T08:20:41.081Z,1.07
2018-09-27T08:23:10.440Z,1.13
2018-09-27T08:25:40.681Z,1.00
2018-09-27T08:28:11.124Z,1.00
2018-09-27T08:30:42.485Z,1.10
2018-09-27T08:33:11.819Z,1.10
2018-09-27T08:35:41.421Z,1.13
2018-09-27T08:38:10.842Z,1.27
2018-09-27T08:40:40.951Z,0.80
2018-09-27T08:43:10.918Z,0.90
2018-09-27T08:45:40.673Z,1.00
2018-09-27T08:48:10.723Z,0.90
2018-09-27T08:50:41.226Z,1.00
2018-09-27T08:53:11.119Z,1.00
2018-09-27T08:55:40.860Z,3.10
2018-09-27T08:58:11.257Z,1.83
2018-09-27T09:00:40.787Z,1.37
2018-09-27T09:03:11.539Z,0.93
2018-09-27T09:05:41.251Z,1.10
2018-09-27T09:08:10.952Z,0.90
2018-09-27T09:10:41.195Z,1.10
2018-09-27T09:13:10.968Z,1.00
2018-09-27T09:15:41.636Z,1.20
2018-09-27T09:18:11.734Z,1.30
2018-09-27T09:20:41.266Z,1.13
2018-09-27T09:23:11.571Z,1.50
2018-09-27T09:25:41.177Z,1.30
2018-09-27T09:28:10.639Z,1.07
2018-09-27T09:30:40.156Z,1.40
2018-09-27T09:33:11.020Z,1.40
2018-09-27T09:35:40.541Z,1.33
2018-09-27T09:38:10.114Z,1.40
2018-09-27T09:40:39.722Z,1.20
2018-09-27T09:43:09.208Z,1.10
2018-09-27T09:45:39.251Z,1.37
2018-09-27T09:48:09.464Z,1.20
2018-09-27T09:50:39.224Z,1.30
2018-09-27T09:53:08.852Z,1.50
2018-09-27T09:55:38.494Z,1.60
2018-09-27T09:58:08.980Z,1.33
2018-09-27T10:00:38.988Z,1.10
2018-09-27T10:03:09.412Z,1.40
2018-09-27T10:05:39.218Z,1.10
2018-09-27T10:08:09.544Z,1.13
2018-09-27T10:10:39.109Z,1.17
2018-09-27T10:13:09.135Z,1.20
2018-09-27T10:15:38.605Z,1.17
2018-09-27T10:18:09.202Z,1.00
2018-09-27T10:20:39.897Z,1.33
2018-09-27T10:23:10.725Z,1.40
2018-09-27T10:25:41.234Z,1.33
2018-09-27T10:28:11.182Z,1.20
2018-09-27T10:30:41.900Z,1.27
2018-09-27T10:33:11.380Z,1.00
2018-09-27T10:35:41.027Z,1.50
2018-09-27T10:38:13.233Z,1.00
2018-09-27T10:40:43.172Z,0.90
2018-09-27T10:43:12.686Z,1.00
2018-09-27T10:45:43.252Z,0.90
2018-09-27T10:48:12.772Z,1.00
2018-09-27T10:50:46.514Z,1.40
2018-09-27T10:53:16.054Z,1.00
2018-09-27T10:55:47.134Z,1.00
2018-09-27T10:58:17.818Z,0.97
2018-09-27T11:00:47.588Z,0.90
2018-09-27T11:03:18.244Z,0.93
2018-09-27T11:05:48.365Z,0.90
2018-09-27T11:08:18.310Z,1.00
2018-09-27T11:10:48.018Z,4.00
2018-09-27T11:13:17.595Z,1.37
2018-09-27T11:15:48.175Z,0.90
2018-09-27T11:18:18.161Z,1.20
2018-09-27T11:20:49.250Z,1.00
2018-09-27T11:23:19.628Z,1.07
2018-09-27T11:25:49.617Z,1.07
2018-09-27T11:28:20.384Z,1.07
2018-09-27T11:31:54.019Z,1.30
2018-09-27T11:34:23.650Z,1.13
2018-09-27T11:36:53.250Z,1.10
2018-09-27T11:39:24.165Z,0.83
2018-09-27T11:41:53.969Z,1.30
2018-09-27T11:44:23.723Z,1.03
2018-09-27T11:46:53.380Z,0.97
2018-09-27T11:49:22.864Z,1.30
2018-09-27T11:51:53.326Z,1.20
2018-09-27T11:54:23.277Z,1.27
2018-09-27T11:56:52.746Z,1.10
2018-09-27T11:59:22.604Z,1.10
2018-09-27T12:01:52.263Z,1.10
2018-09-27T12:04:21.794Z,1.23
2018-09-27T12:06:51.585Z,0.90
2018-09-27T12:09:21.097Z,0.90
2018-09-27T12:11:50.751Z,1.00
2018-09-27T12:14:20.750Z,1.07
2018-09-27T12:16:51.240Z,1.10
2018-09-27T12:19:21.609Z,1.20
2018-09-27T12:21:53.121Z,1.27
2018-09-27T12:26:59.073Z,1.23
2018-09-27T12:29:28.817Z,1.10
2018-09-27T12:31:58.410Z,1.20
2018-09-27T12:34:28.165Z,1.30
2018-09-27T12:36:58.249Z,1.13
2018-09-27T12:39:27.852Z,0.90
2018-09-27T12:41:58.380Z,1.10
2018-09-27T12:44:27.722Z,1.40
2018-09-27T12:46:57.374Z,1.30
2018-09-27T12:49:26.871Z,1.40
2018-09-27T12:51:56.633Z,1.60
2018-09-27T12:54:26.853Z,1.30
2018-09-27T12:56:56.424Z,1.60
2018-09-27T12:59:26.055Z,1.30
2018-09-27T13:01:55.798Z,1.40
2018-09-27T13:04:25.273Z,1.30
2018-09-27T13:06:55.040Z,1.43
2018-09-27T13:09:24.756Z,1.50
2018-09-27T13:11:54.192Z,1.30
2018-09-27T13:14:24.075Z,1.20
2018-09-27T13:16:54.001Z,1.27
2018-09-27T13:19:23.588Z,1.47
2018-09-27T13:21:53.781Z,1.20
2018-09-27T13:24:23.807Z,1.60
2018-09-27T13:26:54.273Z,1.47
2018-09-27T13:29:23.812Z,1.13
2018-09-27T13:31:53.441Z,1.33
2018-09-27T13:34:23.077Z,1.20
2018-09-27T13:36:52.803Z,1.30
2018-09-27T13:39:23.571Z,1.13
2018-09-27T13:41:53.301Z,1.10
2018-09-27T13:44:23.803Z,1.13
2018-09-27T13:46:53.556Z,1.10
2018-09-27T13:49:23.136Z,1.10
2018-09-27T13:51:52.666Z,1.20
2018-09-27T13:54:23.270Z,1.20
2018-09-27T13:56:52.829Z,1.10
2018-09-27T13:59:22.908Z,1.10
2018-09-27T14:01:52.985Z,0.90
2018-09-27T14:04:22.408Z,1.00
2018-09-27T14:06:51.924Z,1.00
2018-09-27T14:09:21.589Z,1.23
2018-09-27T14:11:51.833Z,1.20
2018-09-27T14:14:21.460Z,1.03
2018-09-27T14:16:51.738Z,1.40
2018-09-27T14:19:22.247Z,1.07
2018-09-27T14:21:51.903Z,1.27
2018-09-27T14:24:22.274Z,1.17
2018-09-27T14:26:52.449Z,0.90
2018-09-27T14:29:22.320Z,0.90
2018-09-27T14:31:52.156Z,1.00
2018-09-27T14:34:24.377Z,1.30
2018-09-27T14:36:54.666Z,1.30
2018-09-27T14:39:24.622Z,1.60
2018-09-27T14:41:54.321Z,1.10
2018-09-27T14:44:24.459Z,1.30
2018-09-27T14:46:54.559Z,1.30
2018-09-27T14:49:28.920Z,1.20
2018-09-27T14:51:58.920Z,1.37
2018-09-27T14:54:33.144Z,1.10
2018-09-27T14:57:04.032Z,1.00
2018-09-27T14:59:34.037Z,1.20
2018-09-27T15:02:04.480Z,1.00
2018-09-27T15:04:34.639Z,0.97
2018-09-27T15:07:04.295Z,1.20
2018-09-27T15:09:34.102Z,1.00
2018-09-27T15:12:03.533Z,1.00
2018-09-27T15:14:33.571Z,0.93
2018-09-27T15:17:03.063Z,1.10
2018-09-27T15:19:33.283Z,1.00
2018-09-27T15:22:03.051Z,1.00
2018-09-27T15:24:33.238Z,1.03
2018-09-27T15:27:03.482Z,1.30
2018-09-27T15:29:33.313Z,1.10
2018-09-27T15:32:03.429Z,1.30
2018-09-27T15:34:33.284Z,1.23
2018-09-27T15:37:03.478Z,1.00
2018-09-27T15:39:33.968Z,1.07
2018-09-27T15:42:03.412Z,1.07
2018-09-27T15:44:33.214Z,1.03
2018-09-27T15:47:03.470Z,1.40
2018-09-27T15:49:33.387Z,1.20
2018-09-27T15:52:03.910Z,0.97
2018-09-27T15:54:35.489Z,1.17
2018-09-27T15:57:06.990Z,1.20
2018-09-27T15:59:37.159Z,1.50
2018-09-27T16:02:07.645Z,1.17
2018-09-27T16:04:37.561Z,1.30
2018-09-27T16:07:08.002Z,1.07
2018-09-27T16:09:37.803Z,1.20
2018-09-27T16:12:07.681Z,1.30
2018-09-27T16:14:37.261Z,1.10
2018-09-27T16:17:07.563Z,1.20
2018-09-27T16:19:37.621Z,1.30
2018-09-27T16:22:07.509Z,1.00
2018-09-27T16:24:37.450Z,1.47
2018-09-27T16:27:12.159Z,1.20
2018-09-27T16:29:45.107Z,1.30
2018-09-27T16:32:14.662Z,1.20
2018-09-27T16:34:45.669Z,1.30
2018-09-27T16:37:19.159Z,1.30
2018-09-27T16:39:49.105Z,1.50
2018-09-27T16:42:19.447Z,1.23
2018-09-27T16:44:55.133Z,1.50
2018-09-27T16:47:24.859Z,1.90
2018-09-27T16:49:56.057Z,1.37
2018-09-27T16:52:25.712Z,1.90
2018-09-27T16:54:57.630Z,1.30
2018-09-27T16:57:29.049Z,1.20
2018-09-27T16:59:59.846Z,1.50
2018-09-27T17:02:30.272Z,1.67
2018-09-27T17:05:01.027Z,1.73
2018-09-27T17:07:32.023Z,1.80
2018-09-27T17:10:04.437Z,1.50
2018-09-27T17:12:34.228Z,1.70
2018-09-27T17:15:17.232Z,1.70
2018-09-27T17:17:48.680Z,1.80
2018-09-27T17:20:18.606Z,1.67
2018-09-27T17:22:52.678Z,1.70
2018-09-27T17:25:23.806Z,1.80
2018-09-27T17:27:55.335Z,1.57
2018-09-27T17:30:26.880Z,1.63
2018-09-27T17:32:57.631Z,1.63
2018-09-27T17:35:36.343Z,1.60
2018-09-27T17:38:06.180Z,1.50
2018-09-27T17:40:38.820Z,1.37
2018-09-27T17:43:10.843Z,1.60
2018-09-27T17:45:52.842Z,1.60
2018-09-27T17:48:22.994Z,1.70
2018-09-27T17:50:53.005Z,1.60
2018-09-27T17:53:24.571Z,1.60
2018-09-27T17:55:56.420Z,1.83
2018-09-27T17:58:29.190Z,1.57
2018-09-27T18:01:04.289Z,1.70
2018-09-27T18:03:54.649Z,1.70
2018-09-27T18:06:25.183Z,1.90
2018-09-27T18:08:55.545Z,1.60
2018-09-27T18:11:25.471Z,1.70
2018-09-27T18:13:57.207Z,2.00
2018-09-27T18:16:28.258Z,2.10
2018-09-27T18:19:00.401Z,1.50
2018-09-27T18:21:30.575Z,1.90
2018-09-27T18:24:01.087Z,2.23
2018-09-27T18:26:30.908Z,1.90
2018-09-27T18:29:01.086Z,2.10
2018-09-27T18:31:32.773Z,1.80
2018-09-27T18:34:05.666Z,1.80
2018-09-27T18:36:35.586Z,2.10
2018-09-27T18:39:11.255Z,2.03
2018-09-27T18:41:41.432Z,2.27
2018-09-27T18:44:12.864Z,2.00
2018-09-27T18:46:43.863Z,2.40
2018-09-27T18:49:13.820Z,2.20
2018-09-27T18:51:48.753Z,2.17
2018-09-27T18:54:20.024Z,2.47
2018-09-27T18:56:50.006Z,2.20
2018-09-27T18:59:22.482Z,2.27
2018-09-27T19:01:59.074Z,2.40
2018-09-27T19:04:31.683Z,2.20
2018-09-27T19:07:01.620Z,2.40
2018-09-27T19:09:31.752Z,2.43
2018-09-27T19:12:02.849Z,2.70
2018-09-27T19:14:33.009Z,2.50
2018-09-27T19:17:03.777Z,2.50
2018-09-27T19:19:34.462Z,2.50
2018-09-27T19:22:06.376Z,2.33
2018-09-27T19:24:38.052Z,2.23
2018-09-27T19:27:08.417Z,2.63
2018-09-27T19:29:41.577Z,2.20
2018-09-27T19:32:12.695Z,2.17
2018-09-27T19:34:47.273Z,2.33
2018-09-27T19:37:16.895Z,2.23
2018-09-27T19:39:46.623Z,2.60
2018-09-27T19:42:16.348Z,2.27
2018-09-27T19:44:45.959Z,2.23
2018-09-27T19:47:15.807Z,2.27
2018-09-27T19:49:45.408Z,2.90
2018-09-27T19:52:19.612Z,2.70
2018-09-27T19:54:49.400Z,2.23
2018-09-27T19:57:19.335Z,2.10
2018-09-27T19:59:50.116Z,2.70
2018-09-27T20:02:20.291Z,2.47
2018-09-27T20:04:50.194Z,2.40
2018-09-27T20:07:20.274Z,2.37
2018-09-27T20:09:50.725Z,2.43
2018-09-27T20:12:22.049Z,2.37
2018-09-27T20:14:51.520Z,2.40
2018-09-27T20:17:21.561Z,2.90
2018-09-27T20:19:51.470Z,2.77
2018-09-27T20:22:21.287Z,3.60
2018-09-27T20:24:51.574Z,3.77
2018-09-27T20:27:22.184Z,4.20
2018-09-27T20:29:53.861Z,4.23
2018-09-27T20:32:23.836Z,3.60
2018-09-27T20:34:53.503Z,3.70
2018-09-27T20:37:23.106Z,3.50
2018-09-27T20:39:52.763Z,3.90
2018-09-27T20:42:22.595Z,3.77
2018-09-27T20:44:52.143Z,4.10
2018-09-27T20:47:23.013Z,4.17
2018-09-27T20:49:52.566Z,3.70
2018-09-27T20:52:23.349Z,3.90
2018-09-27T20:54:53.159Z,3.70
2018-09-27T20:57:22.621Z,4.20
2018-09-27T20:59:52.406Z,3.90
2018-09-27T21:02:22.243Z,3.87
2018-09-27T21:04:52.055Z,4.50
2018-09-27T21:07:21.825Z,4.20
2018-09-27T21:09:51.523Z,4.10
2018-09-27T21:12:21.029Z,4.03
2018-09-27T21:14:50.540Z,3.57
2018-09-27T21:17:20.179Z,3.63
2018-09-27T21:19:49.729Z,3.70
2018-09-27T21:22:19.743Z,3.57
2018-09-27T21:24:49.161Z,3.57
2018-09-27T21:27:18.802Z,3.37
2018-09-27T21:29:48.425Z,4.57
2018-09-27T21:32:20.771Z,3.53
2018-09-27T21:34:51.008Z,3.93
2018-09-27T21:37:20.671Z,3.97
2018-09-27T21:39:51.008Z,3.77
2018-09-27T21:42:20.709Z,3.20
2018-09-27T21:44:50.549Z,2.80
2018-09-27T21:47:20.816Z,2.90
2018-09-27T21:49:50.402Z,2.87
2018-09-27T21:52:20.240Z,3.20
2018-09-27T21:54:49.792Z,2.80
2018-09-27T21:57:19.325Z,2.90
2018-09-27T21:59:48.877Z,3.10
2018-09-27T22:02:19.152Z,2.70
2018-09-27T22:04:48.787Z,3.00
2018-09-27T22:07:19.352Z,3.13
2018-09-27T22:09:48.927Z,3.10
2018-09-27T22:12:19.181Z,2.90
2018-09-27T22:14:49.754Z,2.50
2018-09-27T22:17:20.287Z,2.80
2018-09-27T22:19:55.567Z,2.70
2018-09-27T22:22:25.091Z,3.00
2018-09-27T22:24:54.807Z,3.50
2018-09-27T22:27:25.559Z,3.57
2018-09-27T22:29:55.695Z,3.30
2018-09-27T22:32:25.425Z,3.67
2018-09-27T22:34:55.699Z,3.50
2018-09-27T22:37:26.060Z,3.97
2018-09-27T22:39:55.688Z,4.37
2018-09-27T22:42:26.200Z,4.50
2018-09-27T22:44:55.673Z,4.47
2018-09-27T22:47:25.368Z,3.70
2018-09-27T22:49:54.889Z,3.90
2018-09-27T22:52:24.426Z,4.10
2018-09-27T22:54:55.557Z,5.30
2018-09-27T22:57:25.208Z,4.60
2018-09-27T22:59:55.630Z,4.53
2018-09-27T23:02:25.370Z,3.73
2018-09-27T23:04:55.590Z,3.80
2018-09-27T23:07:25.348Z,4.77
2018-09-27T23:09:55.284Z,5.37
2018-09-27T23:12:25.600Z,5.97
2018-09-27T23:14:55.182Z,6.07
2018-09-27T23:17:25.323Z,6.00
2018-09-27T23:19:54.922Z,6.03
2018-09-27T23:22:26.580Z,5.70
2018-09-27T23:24:56.972Z,5.13
2018-09-27T23:27:26.515Z,5.30
2018-09-27T23:29:56.054Z,5.30
2018-09-27T23:32:25.949Z,5.20
2018-09-27T23:34:55.532Z,4.77
2018-09-27T23:37:25.781Z,4.40
2018-09-27T23:39:56.371Z,4.17
2018-09-27T23:42:26.063Z,4.23
2018-09-27T23:44:55.877Z,3.83
2018-09-27T23:47:25.490Z,4.07
2018-09-27T23:49:55.672Z,4.30
2018-09-27T23:52:25.217Z,3.50
2018-09-27T23:54:54.936Z,3.67
2018-09-27T23:57:24.386Z,4.13
2018-09-27T23:59:53.967Z,3.83
